createdAt,value
2022-11-24T00:00:02.546Z,1001.624
2022-11-24T00:07:01.582Z,1001.624
2022-11-24T00:14:01.469Z,1001.532
2022-11-24T00:21:01.390Z,1001.532
2022-11-24T00:28:01.768Z,1001.67
2022-11-24T00:35:02.340Z,1001.67
2022-11-24T00:42:01.483Z,1001.834
2022-11-24T00:49:01.713Z,1001.834
2022-11-24T00:56:03.235Z,1001.905
2022-11-24T01:00:01.820Z,1001.905
2022-11-24T01:07:01.337Z,1001.657
2022-11-24T01:14:01.523Z,1001.657
2022-11-24T01:21:05.785Z,1002.125
2022-11-24T01:28:02.182Z,1002.321
2022-11-24T01:35:02.086Z,1002.321
2022-11-24T01:42:01.418Z,1002.145
2022-11-24T01:49:01.584Z,1002.145
2022-11-24T01:56:01.597Z,1002.374
2022-11-24T02:00:02.178Z,1002.374
2022-11-24T02:07:01.501Z,1002.049
2022-11-24T02:14:01.480Z,1002.049
2022-11-24T02:21:01.428Z,1002.563
2022-11-24T02:28:01.925Z,1002.563
2022-11-24T02:35:02.217Z,1002.686
2022-11-24T02:42:01.877Z,1002.686
2022-11-24T02:49:01.581Z,1002.606
2022-11-24T02:56:02.301Z,1002.606
2022-11-24T03:00:01.878Z,1002.672
2022-11-24T03:07:01.974Z,1002.672
2022-11-24T03:14:01.591Z,1002.769
2022-11-24T03:21:02.199Z,1002.769
2022-11-24T03:28:01.795Z,1002.851
2022-11-24T03:35:01.860Z,1002.851
2022-11-24T03:42:02.279Z,1002.928
2022-11-24T03:49:01.959Z,1003.045
2022-11-24T03:56:01.775Z,1003.045
2022-11-24T04:00:02.371Z,1003.045
2022-11-24T04:07:02.204Z,1003.154
2022-11-24T04:14:01.362Z,1003.154
2022-11-24T04:21:02.009Z,1003.177
2022-11-24T04:28:02.056Z,1003.102
2022-11-24T04:35:01.530Z,1003.102
2022-11-24T04:42:02.251Z,1003.198
2022-11-24T04:49:01.656Z,1003.198
2022-11-24T04:56:02.124Z,1003.285
2022-11-24T05:00:01.649Z,1003.285
2022-11-24T05:07:01.703Z,1003.351
2022-11-24T05:14:02.309Z,1003.351
2022-11-24T05:21:01.678Z,1003.34
2022-11-24T05:28:01.867Z,1003.34
2022-11-24T05:35:02.173Z,1003.799
2022-11-24T05:42:01.973Z,1003.799
2022-11-24T05:49:01.725Z,1003.69
2022-11-24T05:56:01.320Z,1003.69
2022-11-24T06:00:01.841Z,1004.052
2022-11-24T06:07:01.958Z,1004.052
2022-11-24T06:14:04.665Z,1004.078
2022-11-24T06:21:10.751Z,1004.078
2022-11-24T06:28:01.473Z,1003.708
2022-11-24T06:35:02.447Z,1003.708
2022-11-24T06:42:01.898Z,1004.565
2022-11-24T06:49:01.638Z,1004.277
2022-11-24T06:56:01.834Z,1004.277
2022-11-24T07:00:02.517Z,1004.277
2022-11-24T07:07:01.739Z,1004.719
2022-11-24T07:14:01.805Z,1005.156
2022-11-24T07:21:01.817Z,1005.156
2022-11-24T07:28:02.125Z,1005.257
2022-11-24T07:35:01.979Z,1005.257
2022-11-24T07:42:01.951Z,1005.491
2022-11-24T07:49:01.594Z,1005.491
2022-11-24T07:56:02.216Z,1005.547
2022-11-24T08:00:01.749Z,1005.547
2022-11-24T08:07:01.769Z,1006.187
2022-11-24T08:14:01.621Z,1006.187
2022-11-24T08:21:02.291Z,1006.268
2022-11-24T08:28:01.358Z,1006.268
2022-11-24T08:35:13.934Z,1006.561
2022-11-24T08:42:01.715Z,1006.561
2022-11-24T08:49:01.566Z,1006.681
2022-11-24T08:56:01.620Z,1006.852
2022-11-24T09:00:02.253Z,1006.852
2022-11-24T09:07:02.215Z,1006.852
2022-11-24T09:14:02.138Z,1006.975
2022-11-24T09:21:01.888Z,1006.975
2022-11-24T09:28:01.887Z,1007.183
2022-11-24T09:35:02.286Z,1007.378
2022-11-24T09:42:01.442Z,1007.378
2022-11-24T09:49:02.196Z,1007.523
2022-11-24T09:56:01.678Z,1007.523
2022-11-24T10:00:02.284Z,1007.701
2022-11-24T10:07:01.809Z,1007.701
2022-11-24T10:14:01.753Z,1007.842
2022-11-24T10:21:01.331Z,1007.842
2022-11-24T10:28:01.602Z,1007.97
2022-11-24T10:35:02.211Z,1007.97
2022-11-24T10:42:01.509Z,1008.015
2022-11-24T10:49:02.263Z,1008.015
2022-11-24T10:56:01.475Z,1008.136
2022-11-24T11:00:02.009Z,1008.136
2022-11-24T11:07:02.218Z,1008.222
2022-11-24T11:14:04.212Z,1008.222
2022-11-24T11:21:01.835Z,1008.285
2022-11-24T11:28:07.165Z,1008.285
2022-11-24T11:35:02.359Z,1008.372
2022-11-24T11:42:01.968Z,1008.372
2022-11-24T11:49:01.497Z,1008.595
2022-11-24T11:56:01.478Z,1008.555
2022-11-24T12:00:02.018Z,1008.555
2022-11-24T12:07:01.944Z,1008.555
2022-11-24T12:14:01.760Z,1008.537
2022-11-24T12:21:01.785Z,1008.537
2022-11-24T12:28:01.754Z,1008.547
2022-11-24T12:35:01.955Z,1008.514
2022-11-24T12:42:02.297Z,1008.514
2022-11-24T12:49:01.405Z,1008.485
2022-11-24T12:56:01.565Z,1008.485
2022-11-24T13:00:02.169Z,1008.411
2022-11-24T13:07:01.983Z,1008.411
2022-11-24T13:14:02.216Z,1008.56
2022-11-24T13:21:01.802Z,1008.56
2022-11-24T13:28:01.397Z,1008.554
2022-11-24T13:35:01.789Z,1008.554
2022-11-24T13:42:01.694Z,1008.755
2022-11-24T13:49:02.123Z,1008.755
2022-11-24T13:56:01.805Z,1008.824
2022-11-24T14:00:02.395Z,1008.824
2022-11-24T14:07:07.288Z,1008.816
2022-11-24T14:14:01.399Z,1008.816
2022-11-24T14:21:01.971Z,1008.698
2022-11-24T14:28:02.186Z,1008.698
2022-11-24T14:35:01.614Z,1008.802
2022-11-24T14:42:02.064Z,1008.802
2022-11-24T14:49:01.327Z,1008.706
2022-11-24T14:56:02.135Z,1008.517
2022-11-24T15:00:01.658Z,1008.517
2022-11-24T15:07:01.808Z,1008.517
2022-11-24T15:14:02.233Z,1008.652
2022-11-24T15:21:01.544Z,1008.825
2022-11-24T15:28:01.865Z,1008.825
2022-11-24T15:35:02.351Z,1008.747
2022-11-24T15:42:01.337Z,1008.747
2022-11-24T15:49:01.785Z,1008.782
2022-11-24T15:56:02.293Z,1008.782
2022-11-24T16:00:01.823Z,1008.836
2022-11-24T16:07:01.452Z,1008.836
2022-11-24T16:14:01.583Z,1009.08
2022-11-24T16:21:01.939Z,1009.08
2022-11-24T16:28:01.445Z,1009.134
2022-11-24T16:35:01.639Z,1009.134
2022-11-24T16:42:01.604Z,1009.226
2022-11-24T16:49:02.288Z,1009.226
2022-11-24T16:56:01.464Z,1009.161
2022-11-24T17:00:02.292Z,1009.161
2022-11-24T17:07:01.401Z,1009.248
2022-11-24T17:14:01.369Z,1009.248
2022-11-24T17:21:07.634Z,1009.168
2022-11-24T17:28:01.774Z,1009.168
2022-11-24T17:35:01.726Z,1009.396
2022-11-24T17:42:02.038Z,1009.396
2022-11-24T17:49:01.455Z,1009.441
2022-11-24T17:56:02.025Z,1009.495
2022-11-24T18:00:01.548Z,1009.495
2022-11-24T18:07:01.772Z,1009.495
2022-11-24T18:14:02.274Z,1009.579
2022-11-24T18:21:02.085Z,1009.691
2022-11-24T18:28:01.477Z,1009.691
2022-11-24T18:35:01.963Z,1009.652
2022-11-24T18:42:02.399Z,1009.652
2022-11-24T18:49:01.297Z,1009.731
2022-11-24T18:56:02.065Z,1009.731
2022-11-24T19:00:01.604Z,1009.645
2022-11-24T19:07:01.655Z,1009.645
2022-11-24T19:14:01.703Z,1009.632
2022-11-24T19:21:01.430Z,1009.632
2022-11-24T19:28:01.349Z,1009.496
2022-11-24T19:35:02.449Z,1009.496
2022-11-24T19:42:01.833Z,1009.274
2022-11-24T19:49:01.816Z,1009.274
2022-11-24T19:56:01.891Z,1009.366
2022-11-24T20:00:02.458Z,1009.366
2022-11-24T20:07:02.142Z,1009.404
2022-11-24T20:14:02.188Z,1009.404
2022-11-24T20:21:02.047Z,1009.426
2022-11-24T20:28:01.682Z,1009.426
2022-11-24T20:35:01.679Z,1009.446
2022-11-24T20:42:02.252Z,1009.446
2022-11-24T20:49:01.705Z,1009.446
2022-11-24T20:56:05.853Z,1009.514
2022-11-24T21:00:02.024Z,1009.514
2022-11-24T21:07:01.623Z,1009.514
2022-11-24T21:14:01.539Z,1009.393
2022-11-24T21:21:01.495Z,1009.517
2022-11-24T21:28:01.506Z,1009.517
2022-11-24T21:35:01.990Z,1009.36
2022-11-24T21:42:01.551Z,1009.36
2022-11-24T21:49:02.245Z,1009.431
2022-11-24T21:56:01.367Z,1009.431
2022-11-24T22:00:02.035Z,1009.3
2022-11-24T22:07:02.147Z,1009.3
2022-11-24T22:14:01.853Z,1009.309
2022-11-24T22:21:01.701Z,1009.309
2022-11-24T22:28:01.742Z,1008.891
2022-11-24T22:35:01.801Z,1008.891
2022-11-24T22:42:02.143Z,1009.159
2022-11-24T22:49:01.904Z,1009.159
2022-11-24T22:56:01.597Z,1008.786
2022-11-24T23:00:02.059Z,1008.786
2022-11-24T23:07:01.502Z,1008.932
2022-11-24T23:14:01.855Z,1008.932
2022-11-24T23:21:01.327Z,1009.024
2022-11-24T23:28:01.803Z,1009.024
2022-11-24T23:35:02.734Z,1008.757
2022-11-24T23:42:01.319Z,1008.757
2022-11-24T23:49:01.358Z,1008.746
2022-11-24T23:56:01.960Z,1008.483
